Time;durP1;ratioP1;P1;durP2;ratioP2;P2;SDS_P1;SDS_P2;PMS_P1;PMS_P2;Temp;Humidity;BMP_temperature;BMP_pressure;BME280_temperature;BME280_humidity;BME280_pressure;Samples;Min_cycle;Max_cycle;Signal;HPM_P1;HPM_P2
2023/08/19 00:00:17;;;;;;;5.97;4.60;;;28.50;93.80;;;;;;4965832;28;20286;-73
2023/08/19 00:02:43;;;;;;;6.63;4.00;;;28.50;93.90;;;;;;4962401;28;20515;-72
2023/08/19 00:05:09;;;;;;;4.80;3.97;;;28.50;94.00;;;;;;4964907;28;20210;-72
2023/08/19 00:07:35;;;;;;;6.03;4.30;;;28.50;94.20;;;;;;4966311;28;20201;-72
2023/08/19 00:10:04;;;;;;;6.13;4.60;;;28.50;94.10;;;;;;4965408;28;20927;-72
2023/08/19 00:12:30;;;;;;;10.57;4.80;;;28.40;94.20;;;;;;4962191;28;20180;-72
2023/08/19 00:14:56;;;;;;;5.30;4.33;;;28.40;94.50;;;;;;4964971;28;20478;-72
2023/08/19 00:17:22;;;;;;;6.57;4.40;;;28.40;94.60;;;;;;4958166;28;20183;-72
2023/08/19 00:19:48;;;;;;;6.77;4.50;;;28.40;94.70;;;;;;4963989;28;20520;-72
2023/08/19 00:22:13;;;;;;;8.10;4.40;;;28.40;94.70;;;;;;4960683;28;20441;-72
2023/08/19 00:24:39;;;;;;;8.13;4.23;;;28.40;94.80;;;;;;4962934;28;20351;-72
2023/08/19 00:27:05;;;;;;;7.90;5.20;;;28.30;94.90;;;;;;4963337;28;20198;-72
2023/08/19 00:29:30;;;;;;;6.37;4.73;;;28.30;95.00;;;;;;4965335;28;20627;-72
2023/08/19 00:31:56;;;;;;;8.70;4.80;;;28.30;95.10;;;;;;4966489;28;20186;-72
2023/08/19 00:34:21;;;;;;;5.53;4.60;;;28.30;95.40;;;;;;4962768;28;20222;-72
2023/08/19 00:36:48;;;;;;;7.87;4.77;;;28.20;95.40;;;;;;4960409;28;20703;-73
2023/08/19 00:39:13;;;;;;;7.00;5.00;;;28.20;95.70;;;;;;4961378;28;20182;-72
2023/08/19 00:41:39;;;;;;;7.47;4.47;;;28.20;95.60;;;;;;4960403;28;20443;-72
2023/08/19 00:44:05;;;;;;;6.13;4.60;;;28.10;95.80;;;;;;4958650;28;20224;-73
2023/08/19 00:46:32;;;;;;;5.93;4.83;;;28.10;96.10;;;;;;4961957;28;20183;-73
2023/08/19 00:48:58;;;;;;;6.33;4.67;;;28.10;96.10;;;;;;4959315;28;20520;-73
2023/08/19 00:51:24;;;;;;;6.83;4.60;;;28.00;96.10;;;;;;4964633;28;20521;-73
2023/08/19 00:53:51;;;;;;;9.27;5.57;;;28.00;96.30;;;;;;4963003;28;20516;-73
2023/08/19 00:56:17;;;;;;;6.30;4.63;;;28.00;96.60;;;;;;4966291;28;20575;-73
2023/08/19 00:58:42;;;;;;;6.20;4.73;;;27.90;96.70;;;;;;4963283;28;20433;-73
2023/08/19 01:01:08;;;;;;;6.03;5.43;;;27.90;96.90;;;;;;4957302;28;20739;-73
2023/08/19 01:03:34;;;;;;;7.53;5.43;;;27.90;97.30;;;;;;4960832;28;20175;-73
2023/08/19 01:06:11;;;;;;;5.77;5.10;;;27.80;97.30;;;;;;4956672;28;20710;-73
2023/08/19 01:09:21;;;;;;;6.93;4.97;;;27.80;97.50;;;;;;4963139;28;20186;-72
2023/08/19 01:12:02;;;;;;;5.27;4.77;;;27.80;97.80;;;;;;4964999;28;20515;-72
2023/08/19 01:14:37;;;;;;;10.50;5.27;;;27.70;98.00;;;;;;4959810;28;20457;-72
2023/08/19 01:17:04;;;;;;;7.93;5.00;;;27.60;98.20;;;;;;4963900;28;20432;-72
2023/08/19 01:19:31;;;;;;;7.10;4.37;;;27.60;98.50;;;;;;4961354;28;20790;-72
2023/08/19 01:22:08;;;;;;;5.27;4.43;;;27.50;98.80;;;;;;4961923;28;20491;-72
2023/08/19 01:24:39;;;;;;;7.97;5.43;;;27.50;99.00;;;;;;4966269;28;20851;-72
2023/08/19 01:27:06;;;;;;;6.20;4.77;;;27.50;99.20;;;;;;4967390;28;20427;-72
2023/08/19 01:29:32;;;;;;;6.73;5.00;;;27.40;99.30;;;;;;4966332;28;21232;-72
2023/08/19 01:31:59;;;;;;;6.27;5.10;;;27.40;99.60;;;;;;4965286;28;20433;-72
2023/08/19 01:34:25;;;;;;;11.80;5.30;;;27.30;99.90;;;;;;4969370;28;20450;-72
2023/08/19 01:36:59;;;;;;;8.33;5.80;;;27.30;99.90;;;;;;4969250;28;20430;-72
2023/08/19 01:39:25;;;;;;;7.43;5.03;;;27.30;99.90;;;;;;4971098;28;20849;-72
2023/08/19 01:41:51;;;;;;;7.63;4.83;;;27.30;99.90;;;;;;4963519;28;20782;-73
2023/08/19 01:44:17;;;;;;;7.90;5.47;;;27.30;99.90;;;;;;4966245;28;20564;-73
2023/08/19 01:46:43;;;;;;;11.20;5.00;;;27.20;99.90;;;;;;4965337;28;21081;-72
2023/08/19 01:49:08;;;;;;;11.60;5.40;;;27.20;99.90;;;;;;4966669;28;20448;-73
2023/08/19 01:51:34;;;;;;;7.87;6.00;;;27.10;99.90;;;;;;4969667;28;20183;-72
2023/08/19 01:53:59;;;;;;;6.00;4.90;;;27.10;99.90;;;;;;4962711;28;20182;-72
2023/08/19 01:56:25;;;;;;;8.80;5.50;;;27.10;99.90;;;;;;4966853;28;20286;-72
2023/08/19 01:58:51;;;;;;;7.20;5.10;;;27.10;99.90;;;;;;4966162;28;20210;-72
2023/08/19 02:01:16;;;;;;;9.47;5.10;;;27.10;99.90;;;;;;4959971;28;20198;-72
2023/08/19 02:03:42;;;;;;;5.60;4.50;;;27.10;99.90;;;;;;4965221;28;20190;-72
2023/08/19 02:06:08;;;;;;;8.80;4.63;;;27.00;99.90;;;;;;4960782;28;20683;-72
2023/08/19 02:08:33;;;;;;;7.47;5.40;;;27.00;99.90;;;;;;4960160;28;20646;-73
2023/08/19 02:10:59;;;;;;;8.63;4.83;;;27.00;99.90;;;;;;4963243;28;20561;-73
2023/08/19 02:13:24;;;;;;;6.17;4.90;;;27.00;99.90;;;;;;4962966;28;20178;-72
2023/08/19 02:15:50;;;;;;;7.87;5.00;;;27.00;99.90;;;;;;4965443;28;20249;-72
2023/08/19 02:18:17;;;;;;;5.97;4.70;;;27.00;99.90;;;;;;4965694;28;20202;-73
2023/08/19 02:20:47;;;;;;;8.30;5.70;;;27.00;99.90;;;;;;4963313;28;20175;-73
2023/08/19 02:23:12;;;;;;;4.73;4.33;;;26.90;99.90;;;;;;4962950;28;20442;-72
2023/08/19 02:25:38;;;;;;;7.10;4.67;;;26.90;99.90;;;;;;4961349;28;20472;-72
2023/08/19 02:28:04;;;;;;;6.03;5.00;;;26.90;99.90;;;;;;4962866;28;20249;-72
2023/08/19 02:30:31;;;;;;;7.30;5.27;;;26.80;99.90;;;;;;4962498;28;20195;-73
2023/08/19 02:32:57;;;;;;;12.73;5.13;;;26.90;99.90;;;;;;4962726;28;20450;-73
2023/08/19 02:35:22;;;;;;;7.60;5.07;;;26.80;99.90;;;;;;4963687;28;20476;-73
2023/08/19 02:37:48;;;;;;;7.03;5.47;;;26.80;99.90;;;;;;4960829;28;20195;-73
2023/08/19 02:40:14;;;;;;;5.33;4.83;;;26.80;99.90;;;;;;4964087;28;20214;-73
2023/08/19 02:42:39;;;;;;;6.37;5.30;;;26.80;99.90;;;;;;4962885;28;20879;-73
2023/08/19 02:45:06;;;;;;;10.00;4.97;;;26.80;99.90;;;;;;4962899;28;20207;-73
2023/08/19 02:47:31;;;;;;;8.60;4.97;;;26.80;99.90;;;;;;4965233;28;20278;-72
2023/08/19 02:49:57;;;;;;;9.97;5.13;;;26.80;99.90;;;;;;4964841;28;20584;-72
2023/08/19 02:52:22;;;;;;;12.97;5.40;;;26.70;99.90;;;;;;4963326;28;20202;-72
2023/08/19 02:54:48;;;;;;;8.40;5.37;;;26.70;99.90;;;;;;4963635;28;20225;-72
2023/08/19 02:57:14;;;;;;;6.70;5.43;;;26.60;99.90;;;;;;4965925;28;20261;-72
2023/08/19 02:59:39;;;;;;;6.40;5.00;;;26.60;99.90;;;;;;4962292;28;20187;-72
2023/08/19 03:02:05;;;;;;;6.83;5.07;;;26.60;99.90;;;;;;4963293;28;20395;-72
2023/08/19 03:04:30;;;;;;;7.67;5.80;;;26.60;99.90;;;;;;4961696;28;20237;-72
2023/08/19 03:06:57;;;;;;;7.23;5.03;;;26.60;99.90;;;;;;4960292;28;20190;-72
2023/08/19 03:09:23;;;;;;;10.03;5.10;;;26.60;99.90;;;;;;4961380;28;20672;-72
2023/08/19 03:11:49;;;;;;;8.73;4.93;;;26.50;99.90;;;;;;4961574;28;20445;-72
2023/08/19 03:14:14;;;;;;;5.80;5.30;;;26.50;99.90;;;;;;4964005;28;20219;-72
2023/08/19 03:16:40;;;;;;;8.63;5.23;;;26.50;99.90;;;;;;4962798;28;20249;-72
2023/08/19 03:19:05;;;;;;;6.40;5.50;;;26.40;99.90;;;;;;4964692;28;20198;-72
2023/08/19 03:21:31;;;;;;;8.87;5.53;;;26.40;99.90;;;;;;4960413;28;20182;-72
2023/08/19 03:23:56;;;;;;;7.73;6.17;;;26.30;99.90;;;;;;4959199;28;20261;-73
2023/08/19 03:26:22;;;;;;;6.87;5.30;;;26.30;99.90;;;;;;4960789;28;20226;-73
2023/08/19 03:28:47;;;;;;;7.97;6.17;;;26.30;99.90;;;;;;4962725;28;20190;-72
2023/08/19 03:31:13;;;;;;;8.07;6.13;;;26.20;99.90;;;;;;4960099;28;20197;-72
2023/08/19 03:33:39;;;;;;;8.60;6.13;;;26.20;99.90;;;;;;4960492;28;20182;-72
2023/08/19 03:36:05;;;;;;;7.83;5.43;;;26.20;99.90;;;;;;4963769;28;20282;-73
2023/08/19 03:38:31;;;;;;;12.17;6.30;;;26.10;99.90;;;;;;4961844;28;20196;-73
2023/08/19 03:40:56;;;;;;;10.10;5.63;;;26.10;99.90;;;;;;4966805;28;20182;-72
2023/08/19 03:43:22;;;;;;;7.27;5.87;;;26.00;99.90;;;;;;4960045;28;20430;-72
2023/08/19 03:45:47;;;;;;;6.10;5.23;;;26.00;99.90;;;;;;4963238;28;20228;-72
2023/08/19 03:48:13;;;;;;;5.73;5.13;;;26.00;99.90;;;;;;4962854;28;20198;-73
2023/08/19 03:50:39;;;;;;;7.77;5.40;;;26.00;99.90;;;;;;4959609;28;20186;-73
2023/08/19 03:53:05;;;;;;;8.30;5.40;;;26.00;99.90;;;;;;4964015;28;20722;-73
2023/08/19 03:55:31;;;;;;;6.33;5.60;;;26.00;99.90;;;;;;4962958;28;20477;-73
2023/08/19 03:57:56;;;;;;;10.13;5.53;;;26.00;99.90;;;;;;4963938;28;20616;-73
2023/08/19 04:00:22;;;;;;;9.03;5.53;;;25.90;99.90;;;;;;4958026;28;20186;-73
2023/08/19 04:02:48;;;;;;;6.23;5.40;;;25.90;99.90;;;;;;4961998;28;20182;-73
2023/08/19 04:05:14;;;;;;;8.30;5.33;;;25.90;99.90;;;;;;4961004;28;20452;-73
2023/08/19 04:07:39;;;;;;;6.27;4.67;;;25.90;99.90;;;;;;4963323;28;20425;-73
2023/08/19 04:10:05;;;;;;;9.03;5.60;;;25.90;99.90;;;;;;4962342;28;20225;-73
2023/08/19 04:12:31;;;;;;;9.27;5.40;;;25.90;99.90;;;;;;4963675;28;20278;-73
2023/08/19 04:14:57;;;;;;;6.33;5.27;;;25.90;99.90;;;;;;4964409;28;20552;-73
2023/08/19 04:17:22;;;;;;;9.60;5.50;;;25.80;99.90;;;;;;4963099;28;20186;-73
2023/08/19 04:19:49;;;;;;;7.20;5.00;;;25.80;99.90;;;;;;4959515;28;20225;-73
2023/08/19 04:22:15;;;;;;;9.90;5.27;;;25.80;99.90;;;;;;4961687;28;20194;-73
2023/08/19 04:24:41;;;;;;;10.80;5.73;;;25.80;99.90;;;;;;4961874;28;20449;-73
2023/08/19 04:27:07;;;;;;;9.30;5.00;;;25.80;99.90;;;;;;4964001;28;20424;-73
2023/08/19 04:29:33;;;;;;;7.03;5.00;;;25.70;99.90;;;;;;4963264;28;20410;-73
2023/08/19 04:32:02;;;;;;;7.60;6.07;;;25.70;99.90;;;;;;4961653;28;20186;-73
2023/08/19 04:34:29;;;;;;;7.00;4.93;;;25.60;99.90;;;;;;4963067;28;20456;-73
2023/08/19 04:36:55;;;;;;;7.57;6.27;;;25.60;99.90;;;;;;4962432;28;20507;-73
2023/08/19 04:39:21;;;;;;;10.50;5.50;;;25.60;99.90;;;;;;4964075;28;20891;-73
2023/08/19 04:41:47;;;;;;;9.63;5.93;;;25.50;99.90;;;;;;4962855;28;20557;-73
2023/08/19 04:44:12;;;;;;;14.20;6.20;;;25.50;99.90;;;;;;4960829;28;20472;-73
2023/08/19 04:46:38;;;;;;;7.30;5.30;;;25.30;99.90;;;;;;4964446;28;20194;-73
2023/08/19 04:49:05;;;;;;;10.20;5.40;;;25.30;99.90;;;;;;4962634;28;20198;-72
2023/08/19 04:51:31;;;;;;;7.97;4.97;;;25.30;99.90;;;;;;4962353;28;20206;-72
2023/08/19 04:53:56;;;;;;;6.77;5.03;;;25.30;99.90;;;;;;4962450;28;20467;-73
2023/08/19 04:56:22;;;;;;;6.00;4.90;;;25.30;99.90;;;;;;4959746;28;20214;-73
2023/08/19 04:58:48;;;;;;;7.70;4.87;;;25.30;99.90;;;;;;4966993;28;20186;-73
2023/08/19 05:01:13;;;;;;;6.07;5.47;;;25.30;99.90;;;;;;4960983;28;20192;-73
2023/08/19 05:03:39;;;;;;;8.00;5.03;;;25.30;99.90;;;;;;4959074;28;20173;-73
2023/08/19 05:06:05;;;;;;;7.80;5.90;;;25.20;99.90;;;;;;4963115;28;20668;-73
2023/08/19 05:08:30;;;;;;;7.70;4.63;;;25.20;99.90;;;;;;4962750;28;20731;-73
2023/08/19 05:10:56;;;;;;;6.23;5.60;;;25.20;99.90;;;;;;4964881;28;20190;-73
2023/08/19 05:13:22;;;;;;;7.80;5.43;;;25.20;99.90;;;;;;4967749;28;20187;-73
2023/08/19 05:15:47;;;;;;;7.33;5.60;;;25.10;99.90;;;;;;4965426;28;20210;-73
2023/08/19 05:18:13;;;;;;;7.17;5.20;;;25.10;99.90;;;;;;4960174;28;20209;-73
2023/08/19 05:20:38;;;;;;;7.90;5.50;;;25.00;99.90;;;;;;4964333;28;20182;-73
2023/08/19 05:23:04;;;;;;;8.57;5.20;;;24.90;99.90;;;;;;4967990;28;20270;-73
2023/08/19 05:25:30;;;;;;;8.40;6.07;;;24.90;99.90;;;;;;4966453;28;20260;-73
2023/08/19 05:27:57;;;;;;;9.03;6.10;;;25.00;99.90;;;;;;4965926;28;20182;-73
2023/08/19 05:30:23;;;;;;;7.80;5.37;;;24.90;99.90;;;;;;4967553;28;20186;-73
2023/08/19 05:32:48;;;;;;;7.20;5.50;;;25.00;99.90;;;;;;4964689;28;20437;-73
2023/08/19 05:35:14;;;;;;;6.63;5.40;;;24.90;99.90;;;;;;4964158;28;20218;-73
2023/08/19 05:37:40;;;;;;;7.30;6.60;;;24.90;99.90;;;;;;4965759;28;20175;-73
2023/08/19 05:40:06;;;;;;;9.70;5.10;;;24.90;99.90;;;;;;4966924;28;20270;-73
2023/08/19 05:42:31;;;;;;;8.87;6.73;;;24.90;99.90;;;;;;4966571;28;20235;-73
2023/08/19 05:44:57;;;;;;;6.17;5.57;;;24.90;99.90;;;;;;4965444;28;20496;-73
2023/08/19 05:47:23;;;;;;;6.27;4.80;;;24.90;99.90;;;;;;4965593;28;20245;-73
2023/08/19 05:49:48;;;;;;;8.47;6.00;;;25.00;99.90;;;;;;4961932;28;20179;-73
2023/08/19 05:52:14;;;;;;;9.30;6.20;;;25.00;99.90;;;;;;4961195;28;20186;-73
2023/08/19 05:54:40;;;;;;;5.93;5.10;;;25.00;99.90;;;;;;4965015;28;20582;-73
2023/08/19 05:57:06;;;;;;;8.50;6.63;;;24.90;99.90;;;;;;4965982;28;20182;-73
2023/08/19 05:59:32;;;;;;;8.80;5.90;;;25.00;99.90;;;;;;4965681;28;20429;-73
2023/08/19 06:01:57;;;;;;;9.17;5.80;;;25.00;99.90;;;;;;4967572;28;20186;-73
2023/08/19 06:04:24;;;;;;;9.17;5.70;;;25.10;99.90;;;;;;4963767;28;20213;-73
2023/08/19 06:06:49;;;;;;;7.83;5.97;;;25.10;99.90;;;;;;4962743;28;20202;-73
2023/08/19 06:09:15;;;;;;;8.67;6.73;;;25.20;99.90;;;;;;4971061;28;20429;-73
2023/08/19 06:11:48;;;;;;;7.60;6.20;;;25.20;99.90;;;;;;4975623;28;20374;-73
2023/08/19 06:14:14;;;;;;;7.23;6.40;;;25.10;99.90;;;;;;4968597;28;20211;-73
2023/08/19 06:16:41;;;;;;;8.17;6.13;;;25.20;99.90;;;;;;4962019;28;20480;-73
2023/08/19 06:19:07;;;;;;;9.43;6.47;;;25.30;99.90;;;;;;4965730;28;20442;-73
2023/08/19 06:21:32;;;;;;;7.73;5.93;;;25.20;99.90;;;;;;4959428;28;20460;-73
2023/08/19 06:23:58;;;;;;;11.10;8.50;;;25.20;99.90;;;;;;4962653;28;20248;-73
2023/08/19 06:26:25;;;;;;;11.33;6.30;;;25.30;99.90;;;;;;4961825;28;20197;-73
2023/08/19 06:28:50;;;;;;;10.10;6.27;;;25.30;99.90;;;;;;4959598;28;20564;-73
2023/08/19 06:31:16;;;;;;;8.57;7.23;;;25.30;99.90;;;;;;4968058;28;20434;-73
2023/08/19 06:33:43;;;;;;;7.33;6.63;;;25.30;99.90;;;;;;4963376;28;20194;-73
2023/08/19 06:36:10;;;;;;;7.50;6.70;;;25.30;99.90;;;;;;4963429;28;20510;-73
2023/08/19 06:38:41;;;;;;;11.13;6.77;;;25.40;99.90;;;;;;4966107;28;20425;-73
2023/08/19 06:41:11;;;;;;;12.40;7.70;;;25.50;99.90;;;;;;4964299;28;20494;-74
2023/08/19 06:43:38;;;;;;;7.63;6.30;;;25.50;99.90;;;;;;4956120;28;20448;-74
2023/08/19 06:46:05;;;;;;;12.90;6.43;;;25.60;99.90;;;;;;4962865;28;20461;-73
2023/08/19 06:48:32;;;;;;;10.90;6.83;;;25.70;99.90;;;;;;4962710;28;20542;-73
2023/08/19 06:50:59;;;;;;;15.23;8.63;;;25.70;99.90;;;;;;4964634;28;20472;-73
2023/08/19 06:53:25;;;;;;;8.67;6.93;;;25.80;99.90;;;;;;4958121;28;20585;-73
2023/08/19 06:56:05;;;;;;;9.70;7.07;;;25.70;99.90;;;;;;4962762;28;20572;-73
2023/08/19 06:58:43;;;;;;;10.10;8.70;;;25.80;99.90;;;;;;4959985;28;20674;-73
2023/08/19 07:01:16;;;;;;;9.77;7.17;;;25.90;99.90;;;;;;4963978;28;20455;-73
2023/08/19 07:03:42;;;;;;;10.73;7.70;;;25.90;99.90;;;;;;4966535;28;20437;-73
2023/08/19 07:06:09;;;;;;;11.43;7.17;;;25.80;99.90;;;;;;4960555;28;20465;-73
2023/08/19 07:08:39;;;;;;;16.73;9.30;;;25.90;99.90;;;;;;4963583;28;20417;-73
2023/08/19 07:11:05;;;;;;;8.77;7.20;;;26.00;99.90;;;;;;4963718;28;20441;-74
2023/08/19 07:13:31;;;;;;;10.70;9.40;;;26.10;99.90;;;;;;4966070;28;20425;-74
2023/08/19 07:16:03;;;;;;;13.80;7.93;;;26.10;99.90;;;;;;4961665;28;20221;-73
2023/08/19 07:18:34;;;;;;;9.07;7.80;;;26.00;99.90;;;;;;4955152;28;20556;-74
2023/08/19 07:21:00;;;;;;;12.97;7.23;;;26.20;99.90;;;;;;4962428;28;20441;-73
2023/08/19 07:23:27;;;;;;;14.23;7.40;;;26.20;99.90;;;;;;4964959;28;21120;-73
2023/08/19 07:25:53;;;;;;;10.93;7.70;;;26.20;99.90;;;;;;4963516;28;20441;-73
2023/08/19 07:28:24;;;;;;;8.50;7.60;;;26.30;99.90;;;;;;4964071;28;20796;-74
2023/08/19 07:30:50;;;;;;;9.90;7.37;;;26.40;99.90;;;;;;4958472;28;20442;-74
2023/08/19 07:33:16;;;;;;;9.23;8.10;;;26.60;99.90;;;;;;4959958;28;20912;-74
2023/08/19 07:35:45;;;;;;;9.20;6.80;;;26.60;99.90;;;;;;4960866;28;20485;-74
2023/08/19 07:38:11;;;;;;;20.63;9.00;;;26.60;99.90;;;;;;4966094;28;20249;-74
2023/08/19 07:40:36;;;;;;;15.57;8.23;;;26.70;99.90;;;;;;4959190;28;20439;-74
2023/08/19 07:43:02;;;;;;;13.23;11.80;;;26.80;99.90;;;;;;4967979;28;20186;-74
2023/08/19 07:45:28;;;;;;;8.87;7.97;;;26.80;99.90;;;;;;4960370;28;20625;-74
2023/08/19 07:47:53;;;;;;;12.13;8.30;;;26.80;99.90;;;;;;4963839;28;20202;-74
2023/08/19 07:50:19;;;;;;;7.93;7.17;;;26.90;99.90;;;;;;4960814;28;20190;-73
2023/08/19 07:52:44;;;;;;;8.50;7.70;;;26.90;99.90;;;;;;4962190;28;20198;-73
2023/08/19 07:55:10;;;;;;;9.20;7.60;;;27.00;99.90;;;;;;4957733;28;20215;-73
2023/08/19 07:57:36;;;;;;;8.87;7.87;;;27.10;99.90;;;;;;4961114;28;20702;-74
2023/08/19 08:00:02;;;;;;;13.17;6.80;;;27.20;99.90;;;;;;4962387;28;20214;-73
2023/08/19 08:02:28;;;;;;;11.83;7.43;;;27.20;99.90;;;;;;4958311;28;20274;-73
2023/08/19 08:04:54;;;;;;;10.50;6.73;;;27.20;99.90;;;;;;4959541;28;20603;-73
2023/08/19 08:07:19;;;;;;;9.40;7.37;;;27.30;99.90;;;;;;4963542;28;20187;-73
2023/08/19 08:09:45;;;;;;;10.00;7.33;;;27.30;99.90;;;;;;4961137;28;20282;-73
2023/08/19 08:12:11;;;;;;;7.70;6.87;;;27.40;99.90;;;;;;4961171;28;20236;-73
2023/08/19 08:14:37;;;;;;;12.20;7.77;;;27.40;99.90;;;;;;4957309;28;20460;-73
2023/08/19 08:17:03;;;;;;;12.00;6.70;;;27.40;99.90;;;;;;4959292;28;20442;-73
2023/08/19 08:19:28;;;;;;;8.47;7.13;;;27.50;99.90;;;;;;4961546;28;20226;-72
2023/08/19 08:21:54;;;;;;;8.67;7.77;;;27.50;99.90;;;;;;4959843;28;20198;-73
2023/08/19 08:24:21;;;;;;;8.00;6.70;;;27.50;99.90;;;;;;4962673;28;21146;-73
2023/08/19 08:26:47;;;;;;;8.50;7.30;;;27.50;99.90;;;;;;4960600;28;20473;-73
2023/08/19 08:29:12;;;;;;;12.13;7.20;;;27.70;99.90;;;;;;4962540;28;20521;-73
2023/08/19 08:31:38;;;;;;;10.37;7.50;;;27.80;99.90;;;;;;4969892;28;20194;-73
2023/08/19 08:34:05;;;;;;;8.37;7.17;;;27.80;99.90;;;;;;4963837;28;20221;-73
2023/08/19 08:36:30;;;;;;;13.13;7.13;;;27.90;99.90;;;;;;4959378;28;20217;-73
2023/08/19 08:38:56;;;;;;;8.17;7.33;;;28.00;99.90;;;;;;4957991;28;20452;-72
2023/08/19 08:41:22;;;;;;;7.43;6.70;;;28.10;99.90;;;;;;4961093;28;20270;-72
2023/08/19 08:43:48;;;;;;;10.43;8.00;;;28.20;99.90;;;;;;4960803;28;20757;-72
2023/08/19 08:46:16;;;;;;;7.70;6.83;;;28.30;99.90;;;;;;4960886;28;20179;-72
2023/08/19 08:48:43;;;;;;;8.10;6.93;;;28.50;99.90;;;;;;4955225;28;21079;-75
2023/08/19 08:51:09;;;;;;;7.77;6.30;;;28.60;99.90;;;;;;4960246;28;20445;-74
2023/08/19 08:53:36;;;;;;;8.33;6.23;;;28.80;99.90;;;;;;4959939;28;20516;-75
2023/08/19 08:56:02;;;;;;;9.07;6.10;;;29.00;99.90;;;;;;4958310;28;20513;-72
2023/08/19 08:58:28;;;;;;;7.87;6.90;;;29.10;99.90;;;;;;4957994;28;20517;-71
2023/08/19 09:00:54;;;;;;;9.63;6.17;;;29.20;99.90;;;;;;4960062;28;20872;-71
2023/08/19 09:03:25;;;;;;;9.50;6.93;;;29.30;99.90;;;;;;4959802;28;20297;-72
2023/08/19 09:05:55;;;;;;;11.50;7.03;;;29.50;99.90;;;;;;4959790;28;20223;-71
2023/08/19 09:08:27;;;;;;;8.50;6.77;;;29.60;99.90;;;;;;4959642;28;21307;-71
2023/08/19 09:10:53;;;;;;;7.13;6.43;;;29.70;99.90;;;;;;4954266;28;20592;-71
2023/08/19 09:13:23;;;;;;;10.20;6.50;;;29.90;99.90;;;;;;4956249;28;20561;-71
2023/08/19 09:15:48;;;;;;;6.30;5.70;;;29.90;99.90;;;;;;4956484;28;20214;-71
2023/08/19 09:18:17;;;;;;;10.30;6.63;;;30.00;99.90;;;;;;4955604;28;20439;-71
2023/08/19 09:20:44;;;;;;;8.30;6.67;;;30.00;99.90;;;;;;4961611;28;20198;-72
2023/08/19 09:23:10;;;;;;;6.80;6.17;;;30.10;99.90;;;;;;4959371;28;20473;-71
2023/08/19 09:25:39;;;;;;;11.40;6.70;;;30.20;99.90;;;;;;4956357;28;21092;-71
2023/08/19 09:28:04;;;;;;;7.30;6.60;;;30.20;99.90;;;;;;4957784;28;20217;-71
2023/08/19 09:30:34;;;;;;;6.53;5.93;;;30.20;99.90;;;;;;4957635;28;20545;-70
2023/08/19 09:33:00;;;;;;;7.60;5.60;;;30.20;99.90;;;;;;4957581;28;20198;-71
2023/08/19 09:35:34;;;;;;;7.13;6.40;;;30.30;99.90;;;;;;4961277;28;20523;-70
2023/08/19 09:38:00;;;;;;;7.80;5.33;;;30.20;99.90;;;;;;4956139;28;20187;-73
2023/08/19 09:40:26;;;;;;;6.50;5.60;;;30.30;99.90;;;;;;4962577;28;20433;-70
2023/08/19 09:42:51;;;;;;;6.50;5.97;;;30.30;99.90;;;;;;4955270;28;20286;-71
2023/08/19 09:45:19;;;;;;;7.90;6.40;;;30.20;99.90;;;;;;4956801;28;20285;-71
2023/08/19 09:47:49;;;;;;;9.77;6.27;;;30.30;99.90;;;;;;4953753;28;20629;-71
2023/08/19 09:50:22;;;;;;;7.13;6.40;;;30.50;99.90;;;;;;4955332;28;20434;-71
2023/08/19 09:52:59;;;;;;;7.70;6.87;;;30.50;99.90;;;;;;4960979;28;21193;-71
2023/08/19 09:55:29;;;;;;;7.67;5.93;;;30.60;99.90;;;;;;4955147;28;20513;-74
2023/08/19 09:57:56;;;;;;;8.40;7.57;;;30.70;99.90;;;;;;4958005;28;20447;-74
2023/08/19 10:00:23;;;;;;;9.93;9.03;;;30.70;99.90;;;;;;4956073;28;20434;-73
2023/08/19 10:02:49;;;;;;;10.00;6.50;;;30.90;99.90;;;;;;4961067;28;20441;-74
2023/08/19 10:05:16;;;;;;;8.30;6.60;;;31.00;99.90;;;;;;4958589;28;20465;-74
2023/08/19 10:07:48;;;;;;;7.50;6.57;;;31.10;99.90;;;;;;4960165;28;20454;-74
2023/08/19 10:10:14;;;;;;;9.80;6.47;;;31.20;99.90;;;;;;4959182;28;20544;-75
2023/08/19 10:12:40;;;;;;;7.97;5.90;;;31.30;99.90;;;;;;4961376;28;20430;-75
2023/08/19 10:15:13;;;;;;;8.30;6.67;;;31.40;99.90;;;;;;4966051;28;20473;-76
2023/08/19 10:17:41;;;;;;;7.03;6.33;;;31.60;99.90;;;;;;4962216;28;20443;-76
2023/08/19 10:20:11;;;;;;;11.43;6.60;;;31.60;99.90;;;;;;4962788;28;20465;-74
2023/08/19 10:22:41;;;;;;;8.17;6.77;;;31.70;99.90;;;;;;4962688;28;20529;-74
2023/08/19 10:25:09;;;;;;;8.27;6.50;;;31.60;99.90;;;;;;4969803;28;20424;-73
2023/08/19 10:27:35;;;;;;;9.40;6.70;;;31.70;99.90;;;;;;4963975;28;20453;-74
2023/08/19 10:30:33;;;;;;;7.07;6.37;;;31.80;99.90;;;;;;4960060;28;20480;-73
2023/08/19 10:33:28;;;;;;;7.60;6.80;;;31.70;99.90;;;;;;4957037;28;20430;-73
2023/08/19 10:36:18;;;;;;;8.80;7.23;;;31.80;99.90;;;;;;4965467;28;20564;-74
2023/08/19 10:38:54;;;;;;;9.13;7.07;;;31.70;99.90;;;;;;4961885;28;20518;-72
2023/08/19 10:41:35;;;;;;;15.17;6.90;;;31.80;99.90;;;;;;4960041;28;20439;-72
2023/08/19 10:44:12;;;;;;;8.00;7.30;;;31.70;99.90;;;;;;4958584;28;20465;-72
2023/08/19 10:46:44;;;;;;;10.30;6.63;;;31.70;99.90;;;;;;4960177;28;20425;-72
2023/08/19 10:49:21;;;;;;;10.00;8.87;;;31.60;99.90;;;;;;4973749;28;20509;-72
2023/08/19 10:52:02;;;;;;;7.90;7.13;;;31.50;99.90;;;;;;4959336;28;20893;-72
2023/08/19 10:54:35;;;;;;;7.77;7.03;;;31.60;99.90;;;;;;4960990;28;20612;-72
2023/08/19 10:57:13;;;;;;;12.47;7.47;;;31.60;99.90;;;;;;4962580;28;20509;-73
2023/08/19 10:59:44;;;;;;;8.13;7.23;;;31.50;99.90;;;;;;4957307;28;20696;-73
2023/08/19 11:02:11;;;;;;;7.70;7.00;;;31.60;99.90;;;;;;4959851;28;20424;-72
2023/08/19 11:04:45;;;;;;;7.53;6.77;;;31.60;99.90;;;;;;4955043;28;20964;-72
2023/08/19 11:07:11;;;;;;;8.83;6.27;;;31.40;99.90;;;;;;4961343;28;20520;-73
2023/08/19 11:09:42;;;;;;;9.33;6.23;;;31.40;99.90;;;;;;4954561;28;20473;-73
2023/08/19 11:12:09;;;;;;;6.87;6.13;;;31.50;99.90;;;;;;4956220;28;20263;-73
2023/08/19 11:14:35;;;;;;;6.60;5.83;;;31.50;99.90;;;;;;4960855;28;20459;-72
2023/08/19 11:17:02;;;;;;;8.60;7.10;;;31.50;99.90;;;;;;4956914;28;20481;-73
2023/08/19 11:19:30;;;;;;;8.50;6.17;;;31.50;99.90;;;;;;4959469;28;20457;-73
2023/08/19 11:21:57;;;;;;;7.07;6.33;;;31.50;99.90;;;;;;4961600;28;20446;-72
2023/08/19 11:24:30;;;;;;;7.77;6.33;;;31.70;99.90;;;;;;4967308;28;20770;-73
2023/08/19 11:26:55;;;;;;;8.73;6.60;;;31.80;99.90;;;;;;4960864;28;20911;-73
2023/08/19 11:29:21;;;;;;;10.93;6.47;;;31.80;99.90;;;;;;4966636;28;20440;-72
2023/08/19 11:31:47;;;;;;;7.43;6.73;;;31.80;99.90;;;;;;4954518;28;20186;-72
2023/08/19 11:34:13;;;;;;;6.63;5.67;;;31.90;99.90;;;;;;4958565;28;20256;-73
2023/08/19 11:36:42;;;;;;;7.73;5.63;;;31.90;99.90;;;;;;4954882;28;20533;-72
2023/08/19 11:39:09;;;;;;;7.70;6.40;;;32.00;99.90;;;;;;4966675;28;20438;-73
2023/08/19 11:41:35;;;;;;;10.30;6.50;;;32.10;99.90;;;;;;4956061;28;20476;-72
2023/08/19 11:44:05;;;;;;;7.60;6.43;;;32.00;99.90;;;;;;4964377;28;20429;-73
2023/08/19 11:46:32;;;;;;;7.10;6.20;;;32.00;99.90;;;;;;4956883;28;20618;-73
2023/08/19 11:49:03;;;;;;;6.40;5.50;;;32.10;99.90;;;;;;4960991;28;20450;-72
2023/08/19 11:51:28;;;;;;;8.27;5.90;;;32.10;99.90;;;;;;4963567;28;20487;-72
2023/08/19 11:54:00;;;;;;;10.97;5.97;;;32.00;99.90;;;;;;4959315;28;20470;-73
2023/08/19 11:56:25;;;;;;;22.03;7.60;;;31.90;99.90;;;;;;4962617;28;20412;-73
2023/08/19 11:58:52;;;;;;;6.60;5.90;;;31.90;99.90;;;;;;4956259;28;20534;-73
2023/08/19 12:01:19;;;;;;;8.67;7.10;;;31.90;99.90;;;;;;4959635;28;20189;-73
2023/08/19 12:03:51;;;;;;;7.20;5.90;;;31.80;99.90;;;;;;4958073;28;20437;-73
2023/08/19 12:06:17;;;;;;;6.60;5.90;;;31.90;99.90;;;;;;4959292;28;20468;-72
2023/08/19 12:08:45;;;;;;;7.27;6.57;;;31.80;99.90;;;;;;4958816;28;20441;-73
2023/08/19 12:11:11;;;;;;;11.80;6.30;;;31.70;99.90;;;;;;4960073;28;21497;-73
2023/08/19 12:13:38;;;;;;;10.40;6.03;;;31.70;99.90;;;;;;4962727;28;20499;-72
2023/08/19 12:16:05;;;;;;;6.93;6.03;;;31.50;99.90;;;;;;4957614;28;20509;-73
2023/08/19 12:18:32;;;;;;;8.83;6.00;;;31.50;99.90;;;;;;4958809;28;20438;-72
2023/08/19 12:21:00;;;;;;;9.73;7.10;;;31.30;99.90;;;;;;4958176;28;20446;-72
2023/08/19 12:23:26;;;;;;;9.50;5.87;;;31.20;99.90;;;;;;4959145;28;20465;-72
2023/08/19 12:25:53;;;;;;;8.00;6.10;;;31.00;99.90;;;;;;4960587;28;20597;-72
2023/08/19 12:28:19;;;;;;;11.63;6.90;;;31.00;99.90;;;;;;4963128;28;20179;-72
2023/08/19 12:30:46;;;;;;;7.57;6.77;;;31.00;99.90;;;;;;4956357;28;21117;-72
2023/08/19 12:33:15;;;;;;;7.83;6.97;;;31.20;99.90;;;;;;4957316;28;20443;-72
2023/08/19 12:35:42;;;;;;;7.13;6.37;;;31.10;99.90;;;;;;4954997;28;21155;-72
2023/08/19 12:38:08;;;;;;;8.70;7.23;;;31.10;99.90;;;;;;4960566;28;20453;-72
2023/08/19 12:40:35;;;;;;;8.53;7.03;;;31.00;99.90;;;;;;4957142;28;20456;-72
2023/08/19 12:43:01;;;;;;;7.73;6.93;;;31.00;99.90;;;;;;4955802;28;20545;-73
2023/08/19 12:45:26;;;;;;;14.67;6.80;;;30.90;99.90;;;;;;4966336;28;20555;-72